createdAt,value
2019-05-18T00:02:27.834Z,47.57
2019-05-18T00:07:32.940Z,47.97
2019-05-18T00:12:39.001Z,46.13
2019-05-18T00:17:45.168Z,49.50
2019-05-18T00:22:51.188Z,45.30
2019-05-18T00:27:56.170Z,47.27
2019-05-18T00:33:01.263Z,48.30
2019-05-18T00:38:06.405Z,46.40
2019-05-18T00:43:11.351Z,47.77
2019-05-18T00:48:16.532Z,46.47
2019-05-18T00:53:21.641Z,48.20
2019-05-18T00:58:26.650Z,44.37
2019-05-18T01:03:31.487Z,49.10
2019-05-18T01:08:36.490Z,48.27
2019-05-18T01:13:41.387Z,46.17
2019-05-18T01:18:46.236Z,46.93
2019-05-18T01:23:52.473Z,44.97
2019-05-18T01:29:00.587Z,45.80
2019-05-18T01:34:05.780Z,47.93
2019-05-18T01:39:10.574Z,44.67
2019-05-18T01:44:15.383Z,45.73
2019-05-18T01:49:20.296Z,45.43
2019-05-18T01:54:26.051Z,42.47
2019-05-18T01:59:31.017Z,46.13
2019-05-18T02:04:35.944Z,43.83
2019-05-18T02:09:40.931Z,46.60
2019-05-18T02:14:45.892Z,43.73
2019-05-18T02:19:51.003Z,43.40
2019-05-18T02:24:56.163Z,44.90
2019-05-18T02:30:01.016Z,45.83
2019-05-18T02:40:28.522Z,43.87
2019-05-18T02:45:33.271Z,42.83
2019-05-18T02:50:38.112Z,44.73
2019-05-18T02:55:43.142Z,44.10
2019-05-18T03:00:48.336Z,43.93
2019-05-18T03:05:53.286Z,41.83
2019-05-18T03:10:58.379Z,43.20
2019-05-18T03:16:03.245Z,43.50
2019-05-18T03:21:08.076Z,41.70
2019-05-18T03:26:13.086Z,44.50
2019-05-18T03:31:18.114Z,42.27
2019-05-18T03:36:23.761Z,41.77
2019-05-18T03:41:30.070Z,43.13
2019-05-18T03:46:34.943Z,39.77
2019-05-18T03:51:39.785Z,40.70
2019-05-18T03:56:44.831Z,42.57
2019-05-18T04:01:49.793Z,40.20
2019-05-18T04:06:54.899Z,41.57
2019-05-18T04:11:59.843Z,39.10
2019-05-18T04:17:04.782Z,40.83
2019-05-18T04:22:09.784Z,40.90
2019-05-18T04:27:14.684Z,41.07
2019-05-18T04:32:20.560Z,41.27
2019-05-18T04:37:25.557Z,41.20
2019-05-18T04:42:30.649Z,39.30
2019-05-18T04:47:36.843Z,40.20
2019-05-18T04:52:41.899Z,37.83
2019-05-18T04:57:46.944Z,38.27
2019-05-18T05:02:51.914Z,40.23
2019-05-18T05:07:57.354Z,37.37
2019-05-18T05:13:03.432Z,39.43
2019-05-18T05:18:10.830Z,40.17
2019-05-18T05:23:15.664Z,40.43
2019-05-18T05:28:21.182Z,38.27
2019-05-18T05:33:26.613Z,38.70
2019-05-18T05:38:31.644Z,37.00
2019-05-18T05:43:36.488Z,36.20
2019-05-18T05:48:41.454Z,39.77
2019-05-18T05:53:46.639Z,38.00
2019-05-18T05:58:52.831Z,37.30
2019-05-18T06:03:58.000Z,37.77
2019-05-18T06:09:04.616Z,36.70
2019-05-18T06:14:09.890Z,38.43
2019-05-18T06:19:14.826Z,37.40
2019-05-18T06:24:19.889Z,34.67
2019-05-18T06:29:25.060Z,37.10
2019-05-18T06:34:30.123Z,38.70
2019-05-18T06:39:35.336Z,38.30
2019-05-18T06:44:40.620Z,35.40
2019-05-18T06:49:45.848Z,38.77
2019-05-18T06:54:50.925Z,36.93
2019-05-18T06:59:56.088Z,37.30
2019-05-18T07:05:01.112Z,36.03
2019-05-18T07:10:07.905Z,34.93
2019-05-18T07:15:13.310Z,35.57
2019-05-18T07:20:19.453Z,36.63
2019-05-18T07:25:24.669Z,33.83
2019-05-18T07:30:29.723Z,35.57
2019-05-18T07:35:34.881Z,35.33
2019-05-18T07:40:40.581Z,37.90
2019-05-18T07:45:46.015Z,35.97
2019-05-18T07:50:51.404Z,35.53
2019-05-18T07:55:57.569Z,34.37
2019-05-18T08:01:02.638Z,34.93
2019-05-18T08:06:08.142Z,34.13
2019-05-18T08:11:13.449Z,33.60
2019-05-18T08:16:18.682Z,33.83
2019-05-18T08:21:23.980Z,36.87
2019-05-18T08:26:29.008Z,32.97
2019-05-18T08:31:34.374Z,34.53
2019-05-18T08:36:39.644Z,35.10
2019-05-18T08:41:48.207Z,34.77
2019-05-18T08:46:52.098Z,34.63
2019-05-18T08:52:07.902Z,34.00
2019-05-18T08:57:04.253Z,34.63
2019-05-18T09:02:09.532Z,31.80
2019-05-18T09:07:14.686Z,35.13
2019-05-18T09:12:19.870Z,31.87
2019-05-18T09:17:24.887Z,33.67
2019-05-18T09:22:29.796Z,32.97
2019-05-18T09:27:34.959Z,33.43
2019-05-18T09:32:40.121Z,34.00
2019-05-18T09:37:45.385Z,32.33
2019-05-18T09:42:50.419Z,31.80
2019-05-18T09:47:55.573Z,35.33
2019-05-18T09:53:00.717Z,30.03
2019-05-18T09:58:05.877Z,30.03
2019-05-18T10:03:11.460Z,33.03
2019-05-18T10:08:16.806Z,31.90
2019-05-18T10:13:22.162Z,31.20
2019-05-18T10:18:27.504Z,31.47
2019-05-18T10:23:32.505Z,31.80
2019-05-18T10:28:37.676Z,32.10
2019-05-18T10:33:43.193Z,31.13
2019-05-18T10:38:48.558Z,28.60
2019-05-18T10:43:54.315Z,30.53
2019-05-18T10:48:59.460Z,28.23
2019-05-18T10:54:04.766Z,29.43
2019-05-18T10:59:10.289Z,29.43
2019-05-18T11:04:15.629Z,29.50
2019-05-18T11:09:20.994Z,30.20
2019-05-18T11:14:26.137Z,28.50
2019-05-18T11:19:31.507Z,29.30
2019-05-18T11:24:36.540Z,26.53
2019-05-18T11:29:41.614Z,27.27
2019-05-18T11:34:46.746Z,28.93
2019-05-18T11:39:51.844Z,27.33
2019-05-18T11:44:58.720Z,29.67
2019-05-18T11:50:05.092Z,27.40
2019-05-18T11:55:10.228Z,28.63
2019-05-18T12:00:16.942Z,26.23
2019-05-18T12:05:21.956Z,29.03
2019-05-18T12:10:27.373Z,27.20
2019-05-18T12:15:33.122Z,26.80
2019-05-18T12:20:38.564Z,27.93
2019-05-18T12:25:44.030Z,26.60
2019-05-18T12:30:49.181Z,25.07
2019-05-18T12:35:54.316Z,26.97
2019-05-18T12:40:59.603Z,27.80
2019-05-18T12:46:04.624Z,26.30
2019-05-18T12:51:09.600Z,26.40
2019-05-18T12:56:14.736Z,25.57
2019-05-18T13:01:19.915Z,27.47
2019-05-18T13:06:25.052Z,26.77
2019-05-18T13:11:30.244Z,25.73
2019-05-18T13:16:35.595Z,27.57
2019-05-18T13:21:40.927Z,24.90
2019-05-18T13:26:46.165Z,27.87
2019-05-18T13:31:51.640Z,26.70
2019-05-18T13:36:56.887Z,24.90
2019-05-18T13:42:02.256Z,25.10
2019-05-18T13:47:07.891Z,25.67
2019-05-18T13:52:13.064Z,24.40
2019-05-18T13:57:18.036Z,24.40
2019-05-18T14:02:23.200Z,24.23
2019-05-18T14:07:28.093Z,23.60
2019-05-18T14:12:33.360Z,23.30
2019-05-18T14:17:38.548Z,23.53
2019-05-18T14:22:43.976Z,24.80
2019-05-18T14:27:49.279Z,22.93
2019-05-18T14:32:54.713Z,22.57
2019-05-18T14:38:00.192Z,23.27
2019-05-18T14:43:05.647Z,23.47
2019-05-18T14:48:12.333Z,21.63
2019-05-18T14:53:17.582Z,23.80
2019-05-18T14:58:22.642Z,22.80
2019-05-18T15:03:27.696Z,23.33
2019-05-18T15:08:34.809Z,21.03
2019-05-18T15:13:40.262Z,21.23
2019-05-18T15:18:45.404Z,22.13
2019-05-18T15:23:51.972Z,22.63
2019-05-18T15:28:58.029Z,21.30
2019-05-18T15:34:04.215Z,20.10
2019-05-18T15:39:10.005Z,21.97
2019-05-18T15:44:16.903Z,20.27
2019-05-18T15:49:23.187Z,20.80
2019-05-18T15:54:29.130Z,21.80
2019-05-18T15:59:34.043Z,21.27
2019-05-18T16:04:40.101Z,19.73
2019-05-18T16:09:45.175Z,22.90
2019-05-18T16:14:51.087Z,22.67
2019-05-18T16:19:56.249Z,21.03
2019-05-18T16:25:01.285Z,19.70
2019-05-18T16:30:07.881Z,20.07
2019-05-18T16:35:12.988Z,21.53
2019-05-18T16:40:19.548Z,20.13
2019-05-18T16:45:24.590Z,21.10
2019-05-18T16:50:30.339Z,20.70
2019-05-18T16:55:35.525Z,20.77
2019-05-18T17:00:40.664Z,20.97
2019-05-18T17:05:45.768Z,20.10
2019-05-18T17:10:51.034Z,19.70
2019-05-18T17:15:56.521Z,19.50
2019-05-18T17:21:01.761Z,17.93
2019-05-18T17:26:06.957Z,18.07
2019-05-18T17:31:11.873Z,20.50
2019-05-18T17:36:19.549Z,18.73
2019-05-18T17:41:23.371Z,18.20
2019-05-18T17:46:28.533Z,18.37
2019-05-18T17:51:33.537Z,19.43
2019-05-18T17:56:38.759Z,18.97
2019-05-18T18:01:44.177Z,19.43
2019-05-18T18:06:49.287Z,17.47
2019-05-18T18:11:55.513Z,19.13
2019-05-18T18:17:00.773Z,18.77
2019-05-18T18:22:05.868Z,18.80
2019-05-18T18:27:24.051Z,18.37
2019-05-18T18:32:17.542Z,16.97
2019-05-18T18:37:22.523Z,18.27
2019-05-18T18:42:27.543Z,17.27
2019-05-18T18:47:32.678Z,18.23
2019-05-18T18:52:37.829Z,18.93
2019-05-18T18:57:42.778Z,16.87
2019-05-18T19:02:49.113Z,17.43
2019-05-18T19:07:54.191Z,18.33
2019-05-18T19:12:59.275Z,17.83
2019-05-18T19:18:04.420Z,18.73
2019-05-18T19:23:09.487Z,16.47
2019-05-18T19:28:14.623Z,17.67
2019-05-18T19:33:19.720Z,17.63
2019-05-18T19:38:24.819Z,17.60
2019-05-18T19:43:30.032Z,16.93
2019-05-18T19:48:34.992Z,16.77
2019-05-18T19:53:40.379Z,17.47
2019-05-18T19:58:45.348Z,16.53
2019-05-18T20:03:50.481Z,17.60
2019-05-18T20:08:55.686Z,18.30
2019-05-18T20:14:00.748Z,15.40
2019-05-18T20:19:05.840Z,16.20
2019-05-18T20:24:10.815Z,16.70
2019-05-18T20:29:15.855Z,15.43
2019-05-18T20:34:20.740Z,16.63
2019-05-18T20:39:25.843Z,16.73
2019-05-18T20:44:30.642Z,16.20
2019-05-18T20:49:35.518Z,16.77
2019-05-18T20:54:40.602Z,15.90
2019-05-18T20:59:45.710Z,15.90
2019-05-18T21:04:51.996Z,16.60
2019-05-18T21:09:57.078Z,15.20
2019-05-18T21:15:02.270Z,16.80
2019-05-18T21:20:07.921Z,15.27
2019-05-18T21:25:13.067Z,15.83
2019-05-18T21:30:17.945Z,16.87
2019-05-18T21:35:23.042Z,16.17
2019-05-18T21:40:27.929Z,17.00
2019-05-18T21:45:32.884Z,16.90
2019-05-18T21:50:37.781Z,16.03
2019-05-18T21:55:42.867Z,15.87
2019-05-18T22:00:47.762Z,15.33
2019-05-18T22:05:52.593Z,16.90
2019-05-18T22:10:57.592Z,15.87
2019-05-18T22:16:02.590Z,16.10
2019-05-18T22:21:07.608Z,16.30
2019-05-18T22:26:12.651Z,16.17
2019-05-18T22:31:19.620Z,14.97
2019-05-18T22:36:25.215Z,15.27
2019-05-18T22:41:30.106Z,16.83
2019-05-18T22:46:36.245Z,15.10
2019-05-18T22:51:41.457Z,15.57
2019-05-18T22:56:46.325Z,15.87
2019-05-18T23:01:51.388Z,15.37
2019-05-18T23:06:56.323Z,14.77
2019-05-18T23:12:01.240Z,15.80
2019-05-18T23:17:06.320Z,15.07
2019-05-18T23:22:11.416Z,15.30
2019-05-18T23:27:16.522Z,15.17
2019-05-18T23:32:21.484Z,14.50
2019-05-18T23:37:26.418Z,16.73
2019-05-18T23:42:31.269Z,15.30
2019-05-18T23:47:36.113Z,18.57
2019-05-18T23:52:41.134Z,16.53
2019-05-18T23:57:46.234Z,15.37
